Suse — A8YF4 — position and weather

sailwx.info

Track history (hours):
 
Tides and Currents Weather Stations Pressure Air Temp Water Temp Dewpoint Dewpoint Depression Visibility Wind Speed Wind Dir Waves Ship Positions

Suse

Last reported at 2018-Jun-18 11:23 UTC. Time now 2018-Jun-22 13:25 UTC.
Position N 36°43' E 013°23'.

Length 190 m; draft 10.2 m.

Type: Cargo ship. MMSI: 636092191.

Date/timePositionNaut miles runAvg speedWind from/ knotsBaromVisibWave heightAir tempDewpointWater temp
2018-Jun-18 11:23N 36°43' E 013°23'  
2018-Jun-16 06:51N 36°42' E 000°25'411.7
2018-Jun-16 06:30N 36°41' E 000°20'711.8
2018-Jun-16 05:57N 36°40' E 000°12'  
2018-Jun-10 19:47N 51°08' E 001°35'912.1
2018-Jun-10 19:04N 51°14' E 001°45'212.7
2018-Jun-10 18:57N 51°15' E 001°46'613.4
2018-Jun-10 18:30N 51°21' E 001°50'2312.7
2018-Jun-10 16:42N 51°43' E 001°45'313.3
2018-Jun-10 16:30N 51°46' E 001°45'611.2
2018-Jun-10 16:01N 51°50' E 001°39'3 5.8
2018-Jun-10 15:31N 51°51' E 001°35'510.3
2018-Jun-10 15:00N 51°46' E 001°32'511.0
2018-Jun-10 14:31N 51°41' E 001°27'  
Track history (hours):
 
Tides and Currents Weather Stations Pressure Air Temp Water Temp Dewpoint Dewpoint Depression Visibility Wind Speed Wind Dir Waves Ship Positions

Suse

Last reported at 2018-Jun-18 11:23 UTC. Time now 2018-Jun-22 13:25 UTC.
Position N 36°43' E 013°23'.

Length 190 m; draft 10.2 m.

Type: Cargo ship. MMSI: 636092191.

Date/timePositionNaut miles runAvg speedWind from/ knotsBaromVisibWave heightAir tempDewpointWater temp
2018-Jun-18 11:23N 36°43' E 013°23'  
2018-Jun-16 06:51N 36°42' E 000°25'411.7
2018-Jun-16 06:30N 36°41' E 000°20'711.8
2018-Jun-16 05:57N 36°40' E 000°12'  
2018-Jun-10 19:47N 51°08' E 001°35'912.1
2018-Jun-10 19:04N 51°14' E 001°45'212.7
2018-Jun-10 18:57N 51°15' E 001°46'613.4
2018-Jun-10 18:30N 51°21' E 001°50'2312.7
2018-Jun-10 16:42N 51°43' E 001°45'313.3
2018-Jun-10 16:30N 51°46' E 001°45'611.2
2018-Jun-10 16:01N 51°50' E 001°39'3 5.8
2018-Jun-10 15:31N 51°51' E 001°35'510.3
2018-Jun-10 15:00N 51°46' E 001°32'511.0
2018-Jun-10 14:31N 51°41' E 001°27'  

Dump ship's entire track history